createdAt,value
2018-08-12T00:00:31.253Z,97942.27
2018-08-12T00:02:59.382Z,97936.72
2018-08-12T00:05:26.321Z,97936.48
2018-08-12T00:07:53.293Z,97934.13
2018-08-12T00:10:20.253Z,97937.27
2018-08-12T00:12:47.244Z,97937.55
2018-08-12T00:15:14.547Z,97932.80
2018-08-12T00:17:41.525Z,97936.23
2018-08-12T00:20:08.469Z,97930.97
2018-08-12T00:22:35.396Z,97928.62
2018-08-12T00:25:02.326Z,97930.45
2018-08-12T00:27:29.233Z,97929.41
2018-08-12T00:29:56.156Z,97935.71
2018-08-12T00:32:23.116Z,97936.52
2018-08-12T00:34:50.058Z,97934.40
2018-08-12T00:37:16.987Z,97929.94
2018-08-12T00:39:43.918Z,97928.92
2018-08-12T00:42:10.823Z,97925.47
2018-08-12T00:44:37.813Z,97923.66
2018-08-12T00:47:04.814Z,97924.98
2018-08-12T00:49:31.798Z,97928.41
2018-08-12T00:51:58.732Z,97927.09
2018-08-12T00:54:25.734Z,97925.25
2018-08-12T00:56:52.672Z,97920.52
2018-08-12T00:59:19.648Z,97921.31
2018-08-12T01:01:46.565Z,97920.79
2018-08-12T01:04:13.520Z,97923.42
2018-08-12T01:06:40.436Z,97927.13
2018-08-12T01:09:07.336Z,97920.02
2018-08-12T01:11:34.317Z,97916.59
2018-08-12T01:14:01.258Z,97908.98
2018-08-12T01:16:28.239Z,97910.30
2018-08-12T01:18:55.232Z,97906.65
2018-08-12T01:21:22.194Z,97905.45
2018-08-12T01:23:49.156Z,97905.86
2018-08-12T01:26:16.132Z,97907.98
2018-08-12T01:28:43.057Z,97900.20
2018-08-12T01:31:10.027Z,97894.22
2018-08-12T01:33:36.993Z,97892.34
2018-08-12T01:36:04.054Z,97897.20
2018-08-12T01:38:36.906Z,97897.60
2018-08-12T01:41:03.965Z,97895.53
2018-08-12T01:43:31.019Z,97895.80
2018-08-12T01:45:57.989Z,97890.27
2018-08-12T01:48:25.229Z,97886.55
2018-08-12T01:50:52.448Z,97883.18
2018-08-12T01:53:21.460Z,97876.44
2018-08-12T01:55:48.465Z,97874.70
2018-08-12T01:58:15.445Z,97873.98
2018-08-12T02:00:42.604Z,97871.05
2018-08-12T02:03:09.565Z,97869.55
2018-08-12T02:05:36.464Z,97878.19
2018-08-12T02:08:03.349Z,97869.39
2018-08-12T02:10:30.257Z,97858.75
2018-08-12T02:12:57.133Z,97860.90
2018-08-12T02:15:24.034Z,97855.52
2018-08-12T02:17:50.951Z,97847.92
2018-08-12T02:20:17.827Z,97852.14
2018-08-12T02:22:44.810Z,97848.81
2018-08-12T02:25:12.203Z,97848.66
2018-08-12T02:27:39.089Z,97844.73
2018-08-12T02:30:05.971Z,97833.77
2018-08-12T02:32:32.870Z,97837.92
2018-08-12T02:34:59.781Z,97838.63
2018-08-12T02:37:26.669Z,97833.06
2018-08-12T02:39:53.560Z,97830.45
2018-08-12T02:42:20.445Z,97833.25
2018-08-12T02:44:47.341Z,97825.78
2018-08-12T02:47:14.230Z,97821.92
2018-08-12T02:49:41.126Z,97825.18
2018-08-12T02:52:08.018Z,97826.63
2018-08-12T02:54:34.920Z,97812.91
2018-08-12T02:57:01.809Z,97819.94
2018-08-12T02:59:28.722Z,97824.85
2018-08-12T03:01:55.603Z,97820.62
2018-08-12T03:04:22.501Z,97815.08
2018-08-12T03:06:49.387Z,97810.91
2018-08-12T03:09:16.310Z,97806.89
2018-08-12T03:11:43.273Z,97808.36
2018-08-12T03:14:10.720Z,97804.35
2018-08-12T03:16:37.713Z,97806.09
2018-08-12T03:19:04.832Z,97801.16
2018-08-12T03:21:31.712Z,97801.00
2018-08-12T03:23:58.602Z,97805.31
2018-08-12T03:26:25.498Z,97795.65
2018-08-12T03:28:52.415Z,97792.75
2018-08-12T03:31:19.301Z,97793.14
2018-08-12T03:33:46.185Z,97791.98
2018-08-12T03:36:13.157Z,97792.50
2018-08-12T03:38:40.054Z,97797.63
2018-08-12T03:41:06.977Z,97798.20
2018-08-12T03:43:33.856Z,97795.52
2018-08-12T03:46:00.739Z,97786.47
2018-08-12T03:48:27.622Z,97779.41
2018-08-12T03:50:54.527Z,97781.48
2018-08-12T03:53:21.413Z,97778.20
2018-08-12T03:55:48.296Z,97784.70
2018-08-12T03:58:15.180Z,97782.69
2018-08-12T04:00:42.074Z,97784.06
2018-08-12T04:03:08.981Z,97778.33
2018-08-12T04:05:35.874Z,97785.73
2018-08-12T04:08:02.752Z,97790.03
2018-08-12T04:10:29.637Z,97793.23
2018-08-12T04:12:56.601Z,97793.06
2018-08-12T04:15:23.489Z,97799.28
2018-08-12T04:17:50.385Z,97806.67
2018-08-12T04:20:17.284Z,97799.36
2018-08-12T04:22:44.348Z,97798.76
2018-08-12T04:25:11.228Z,97799.36
2018-08-12T04:27:38.141Z,97797.13
2018-08-12T04:30:05.045Z,97797.98
2018-08-12T04:32:31.944Z,97799.78
2018-08-12T04:34:58.833Z,97795.45
2018-08-12T04:37:25.742Z,97798.02
2018-08-12T04:39:52.628Z,97794.18
2018-08-12T04:42:19.533Z,97791.99
2018-08-12T04:44:46.420Z,97793.31
2018-08-12T04:47:13.333Z,97788.80
2018-08-12T04:49:40.225Z,97788.48
2018-08-12T04:52:07.112Z,97785.75
2018-08-12T04:54:34.004Z,97789.58
2018-08-12T04:57:00.884Z,97783.27
2018-08-12T04:59:27.784Z,97784.41
2018-08-12T05:01:54.675Z,97779.06
2018-08-12T05:04:21.605Z,97778.56
2018-08-12T05:06:48.498Z,97777.87
2018-08-12T05:09:15.415Z,97780.98
2018-08-12T05:11:42.319Z,97776.69
2018-08-12T05:14:09.236Z,97781.33
2018-08-12T05:16:36.117Z,97775.60
2018-08-12T05:19:03.025Z,97768.97
2018-08-12T05:21:29.900Z,97768.09
2018-08-12T05:23:56.780Z,97768.41
2018-08-12T05:26:23.679Z,97774.86
2018-08-12T05:28:50.593Z,97763.20
2018-08-12T05:31:17.471Z,97758.27
2018-08-12T05:33:44.393Z,97759.61
2018-08-12T05:36:11.364Z,97759.16
2018-08-12T05:38:38.239Z,97756.91
2018-08-12T05:41:05.125Z,97764.28
2018-08-12T05:43:32.014Z,97759.47
2018-08-12T05:45:58.917Z,97761.22
2018-08-12T05:48:25.801Z,97762.08
2018-08-12T05:50:52.693Z,97764.33
2018-08-12T05:53:19.590Z,97763.27
2018-08-12T05:55:46.550Z,97758.05
2018-08-12T05:58:13.445Z,97757.09
2018-08-12T06:00:40.333Z,97751.87
2018-08-12T06:03:07.236Z,97755.64
2018-08-12T06:05:34.125Z,97760.33
2018-08-12T06:08:01.009Z,97755.64
2018-08-12T06:10:27.909Z,97756.22
2018-08-12T06:12:54.797Z,97746.54
2018-08-12T06:15:21.722Z,97745.05
2018-08-12T06:17:48.630Z,97737.92
2018-08-12T06:20:15.778Z,97736.67
2018-08-12T06:22:42.732Z,97727.72
2018-08-12T06:25:10.670Z,97724.48
2018-08-12T06:27:37.558Z,97730.48
2018-08-12T06:30:04.437Z,97719.98
2018-08-12T06:32:31.321Z,97718.27
2018-08-12T06:34:58.288Z,97714.78
2018-08-12T06:37:25.181Z,97723.31
2018-08-12T06:39:52.084Z,97715.80
2018-08-12T06:42:18.989Z,97725.45
2018-08-12T06:44:45.956Z,97719.30
2018-08-12T06:47:12.866Z,97721.55
2018-08-12T06:49:39.750Z,97705.16
2018-08-12T06:52:06.666Z,97703.71
2018-08-12T06:54:33.551Z,97709.28
2018-08-12T06:57:00.495Z,97715.14
2018-08-12T06:59:27.387Z,97711.27
2018-08-12T07:01:54.263Z,97703.27
2018-08-12T07:04:21.144Z,97708.55
2018-08-12T07:06:48.030Z,97709.68
2018-08-12T07:09:14.909Z,97705.52
2018-08-12T07:11:41.822Z,97704.30
2018-08-12T07:14:08.752Z,97715.42
2018-08-12T07:16:36.369Z,97705.00
2018-08-12T07:19:03.261Z,97706.64
2018-08-12T07:21:30.237Z,97699.66
2018-08-12T07:23:57.132Z,97703.35
2018-08-12T07:26:24.032Z,97702.61
2018-08-12T07:28:50.924Z,97698.21
2018-08-12T07:31:17.818Z,97699.34
2018-08-12T07:33:44.713Z,97695.48
2018-08-12T07:36:11.592Z,97688.70
2018-08-12T07:38:38.559Z,97691.89
2018-08-12T07:41:05.503Z,97683.00
2018-08-12T07:43:32.413Z,97690.34
2018-08-12T07:45:59.318Z,97681.45
2018-08-12T07:48:26.208Z,97679.35
2018-08-12T07:50:53.126Z,97678.60
2018-08-12T07:53:20.021Z,97677.06
2018-08-12T07:55:46.928Z,97679.21
2018-08-12T07:58:13.827Z,97677.98
2018-08-12T08:00:40.708Z,97675.41
2018-08-12T08:03:07.616Z,97665.44
2018-08-12T08:05:34.534Z,97667.59
2018-08-12T08:08:01.450Z,97666.05
2018-08-12T08:10:28.345Z,97662.39
2018-08-12T08:12:55.247Z,97664.78
2018-08-12T08:15:22.156Z,97667.67
2018-08-12T08:17:49.049Z,97664.34
2018-08-12T08:20:16.439Z,97656.75
2018-08-12T08:22:43.541Z,97660.17
2018-08-12T08:25:10.793Z,97657.03
2018-08-12T08:27:37.772Z,97653.70
2018-08-12T08:30:04.666Z,97655.30
2018-08-12T08:32:31.559Z,97650.57
2018-08-12T08:34:58.812Z,97647.71
2018-08-12T08:37:25.735Z,97638.30
2018-08-12T08:39:52.638Z,97637.78
2018-08-12T08:42:19.532Z,97638.06
2018-08-12T08:44:46.425Z,97633.93
2018-08-12T08:47:13.335Z,97634.48
2018-08-12T08:49:40.228Z,97631.86
2018-08-12T08:52:07.120Z,97620.91
2018-08-12T08:54:34.044Z,97625.39
2018-08-12T08:57:00.936Z,97627.45
2018-08-12T08:59:27.829Z,97625.39
2018-08-12T09:01:54.749Z,97623.84
2018-08-12T09:04:21.637Z,97621.22
2018-08-12T09:06:48.541Z,97628.33
2018-08-12T09:09:16.510Z,97619.16
2018-08-12T09:11:43.361Z,97616.84
2018-08-12T09:14:10.517Z,97612.39
2018-08-12T09:16:37.434Z,97619.23
2018-08-12T09:19:04.338Z,97615.60
2018-08-12T09:21:31.270Z,97617.71
2018-08-12T09:23:58.215Z,97611.95
2018-08-12T09:26:25.152Z,97602.26
2018-08-12T09:28:52.054Z,97600.42
2018-08-12T09:31:18.971Z,97604.12
2018-08-12T09:33:45.865Z,97601.78
2018-08-12T09:36:12.748Z,97602.57
2018-08-12T09:38:39.637Z,97593.39
2018-08-12T09:41:06.558Z,97588.43
2018-08-12T09:43:33.453Z,97585.56
2018-08-12T09:46:00.350Z,97593.43
2018-08-12T09:48:27.240Z,97584.53
2018-08-12T09:50:54.133Z,97583.22
2018-08-12T09:53:21.021Z,97584.30
2018-08-12T09:55:47.932Z,97580.67
2018-08-12T09:58:14.836Z,97586.43
2018-08-12T10:00:42.068Z,97592.74
2018-08-12T10:03:08.956Z,97577.80
2018-08-12T10:05:35.865Z,97584.36
2018-08-12T10:08:02.772Z,97575.98
2018-08-12T10:10:29.717Z,97567.08
2018-08-12T10:12:56.602Z,97569.97
2018-08-12T10:15:23.554Z,97558.69
2018-08-12T10:17:52.488Z,97554.23
2018-08-12T10:20:19.437Z,97557.93
2018-08-12T10:22:46.385Z,97550.86
2018-08-12T10:25:13.305Z,97546.92
2018-08-12T10:27:40.187Z,97545.89
2018-08-12T10:30:07.082Z,97545.89
2018-08-12T10:32:34.102Z,97548.27
2018-08-12T10:35:01.001Z,97547.23
2018-08-12T10:37:27.958Z,97542.27
2018-08-12T10:39:54.878Z,97541.75
2018-08-12T10:42:21.790Z,97538.61
2018-08-12T10:44:48.739Z,97531.56
2018-08-12T10:47:15.624Z,97533.16
2018-08-12T10:49:42.519Z,97526.08
2018-08-12T10:52:09.430Z,97521.63
2018-08-12T10:54:36.501Z,97519.80
2018-08-12T10:57:03.474Z,97518.76
2018-08-12T10:59:30.526Z,97522.45
2018-08-12T11:01:57.420Z,97514.06
2018-08-12T11:04:24.408Z,97499.39
2018-08-12T11:06:51.681Z,97501.22
2018-08-12T11:09:19.271Z,97500.19
2018-08-12T11:11:46.642Z,97501.50
2018-08-12T11:14:13.602Z,97499.12
2018-08-12T11:16:40.634Z,97491.77
2018-08-12T11:19:07.515Z,97486.28
2018-08-12T11:21:34.474Z,97494.45
2018-08-12T11:24:01.429Z,97480.30
2018-08-12T11:26:28.336Z,97485.27
2018-08-12T11:28:55.257Z,97477.92
2018-08-12T11:31:22.176Z,97475.30
2018-08-12T11:33:49.153Z,97463.77
2018-08-12T11:36:16.093Z,97459.89
2018-08-12T11:38:43.041Z,97460.17
2018-08-12T11:41:10.022Z,97458.86
2018-08-12T11:43:36.989Z,97449.16
2018-08-12T11:46:03.884Z,97450.47
2018-08-12T11:48:30.800Z,97448.12
2018-08-12T11:50:57.751Z,97442.88
2018-08-12T11:53:24.685Z,97436.84
2018-08-12T11:55:51.636Z,97426.25
2018-08-12T11:58:18.549Z,97426.89
2018-08-12T12:00:45.469Z,97416.39
2018-08-12T12:03:12.419Z,97426.13
2018-08-12T12:05:39.384Z,97420.08
2018-08-12T12:08:06.304Z,97422.70
2018-08-12T12:10:33.244Z,97422.98
2018-08-12T12:13:00.148Z,97418.25
2018-08-12T12:15:27.076Z,97415.91
2018-08-12T12:17:53.992Z,97414.07
2018-08-12T12:20:21.038Z,97412.52
2018-08-12T12:22:48.389Z,97403.84
2018-08-12T12:25:17.522Z,97400.19
2018-08-12T12:27:44.450Z,97392.83
2018-08-12T12:30:11.375Z,97389.17
2018-08-12T12:32:38.373Z,97393.11
2018-08-12T12:35:05.644Z,97387.34
2018-08-12T12:37:32.572Z,97383.68
2018-08-12T12:39:59.551Z,97380.27
2018-08-12T12:42:26.537Z,97376.11
2018-08-12T12:44:53.470Z,97378.22
2018-08-12T12:47:20.386Z,97372.17
2018-08-12T12:49:47.342Z,97378.22
2018-08-12T12:52:14.283Z,97370.89
2018-08-12T12:54:41.546Z,97366.67
2018-08-12T12:57:08.516Z,97358.81
2018-08-12T12:59:35.425Z,97360.39
2018-08-12T13:02:02.361Z,97361.19
2018-08-12T13:04:29.270Z,97360.14
2018-08-12T13:06:57.049Z,97357.00
2018-08-12T13:09:23.937Z,97354.38
2018-08-12T13:11:50.830Z,97346.50
2018-08-12T13:14:17.741Z,97344.67
2018-08-12T13:16:44.638Z,97340.48
2018-08-12T13:19:11.520Z,97333.93
2018-08-12T13:21:38.421Z,97330.27
2018-08-12T13:24:05.327Z,97325.55
2018-08-12T13:26:32.227Z,97323.20
2018-08-12T13:28:59.160Z,97320.33
2018-08-12T13:31:26.048Z,97317.70
2018-08-12T13:33:52.948Z,97313.28
2018-08-12T13:36:19.832Z,97310.92
2018-08-12T13:38:46.730Z,97318.28
2018-08-12T13:41:13.657Z,97314.09
2018-08-12T13:43:40.581Z,97309.88
2018-08-12T13:46:07.573Z,97303.33
2018-08-12T13:48:34.538Z,97304.91
2018-08-12T13:51:01.467Z,97303.59
2018-08-12T13:53:28.360Z,97299.66
2018-08-12T13:55:55.336Z,97293.09
2018-08-12T13:58:22.397Z,97294.41
2018-08-12T14:00:49.293Z,97296.52
2018-08-12T14:03:16.184Z,97288.91
2018-08-12T14:05:43.067Z,97279.20
2018-08-12T14:08:09.948Z,97278.94
2018-08-12T14:10:36.862Z,97282.09
2018-08-12T14:13:03.765Z,97272.91
2018-08-12T14:15:30.698Z,97277.64
2018-08-12T14:17:57.597Z,97267.14
2018-08-12T14:20:24.594Z,97265.58
2018-08-12T14:22:51.485Z,97256.91
2018-08-12T14:25:18.379Z,97256.39
2018-08-12T14:27:45.558Z,97255.35
2018-08-12T14:30:13.782Z,97254.04
2018-08-12T14:32:40.933Z,97245.12
2018-08-12T14:35:08.098Z,97244.33
2018-08-12T14:37:35.271Z,97252.20
2018-08-12T14:40:02.149Z,97250.12
2018-08-12T14:42:29.089Z,97244.08
2018-08-12T14:44:55.988Z,97242.24
2018-08-12T14:47:22.872Z,97233.06
2018-08-12T14:49:49.828Z,97232.02
2018-08-12T14:52:16.731Z,97226.77
2018-08-12T14:54:43.623Z,97218.41
2018-08-12T14:57:10.601Z,97219.98
2018-08-12T14:59:37.502Z,97220.77
2018-08-12T15:02:04.399Z,97219.46
2018-08-12T15:04:31.297Z,97217.63
2018-08-12T15:06:58.192Z,97221.56
2018-08-12T15:09:25.098Z,97221.56
2018-08-12T15:11:52.064Z,97211.33
2018-08-12T15:14:18.961Z,97199.00
2018-08-12T15:16:45.902Z,97197.16
2018-08-12T15:19:12.904Z,97192.21
2018-08-12T15:21:39.784Z,97189.29
2018-08-12T15:24:06.677Z,97193.53
2018-08-12T15:26:33.598Z,97189.06
2018-08-12T15:29:00.479Z,97186.70
2018-08-12T15:31:27.369Z,97186.20
2018-08-12T15:33:54.414Z,97181.74
2018-08-12T15:36:21.384Z,97178.59
2018-08-12T15:38:48.378Z,97178.07
2018-08-12T15:41:15.256Z,97176.23
2018-08-12T15:43:42.160Z,97155.73
2018-08-12T15:46:09.068Z,97172.34
2018-08-12T15:48:36.140Z,97172.09
2018-08-12T15:51:03.099Z,97163.95
2018-08-12T15:53:29.965Z,97162.12
2018-08-12T15:55:56.869Z,97165.02
2018-08-12T15:58:23.909Z,97164.49
2018-08-12T16:00:50.807Z,97157.14
2018-08-12T16:03:17.723Z,97160.03
2018-08-12T16:05:44.640Z,97152.94
2018-08-12T16:08:11.535Z,97153.21
2018-08-12T16:10:38.496Z,97144.81
2018-08-12T16:13:05.429Z,97146.12
2018-08-12T16:15:32.323Z,97140.35
2018-08-12T16:17:59.290Z,97140.62
2018-08-12T16:20:26.402Z,97133.53
2018-08-12T16:22:53.303Z,97130.64
2018-08-12T16:25:21.473Z,97130.38
2018-08-12T16:27:48.430Z,97132.25
2018-08-12T16:30:15.569Z,97125.69
2018-08-12T16:32:42.639Z,97124.08
2018-08-12T16:35:10.445Z,97117.81
2018-08-12T16:37:37.332Z,97119.92
2018-08-12T16:40:04.245Z,97117.29
2018-08-12T16:42:31.174Z,97121.23
2018-08-12T16:44:58.100Z,97113.88
2018-08-12T16:47:25.042Z,97117.82
2018-08-12T16:49:52.209Z,97109.16
2018-08-12T16:52:19.063Z,97109.67
2018-08-12T16:54:46.056Z,97110.47
2018-08-12T16:57:12.974Z,97101.28
2018-08-12T16:59:40.449Z,97100.75
2018-08-12T17:02:07.404Z,97101.55
2018-08-12T17:04:34.465Z,97103.64
2018-08-12T17:07:01.389Z,97094.19
2018-08-12T17:09:28.312Z,97090.52
2018-08-12T17:11:55.201Z,97088.41
2018-08-12T17:14:22.241Z,97088.68
2018-08-12T17:16:49.364Z,97083.95
2018-08-12T17:19:16.517Z,97078.17
2018-08-12T17:21:43.545Z,97085.53
2018-08-12T17:24:10.536Z,97079.48
2018-08-12T17:26:37.789Z,97073.72
2018-08-12T17:29:04.899Z,97074.25
2018-08-12T17:31:31.986Z,97071.09
2018-08-12T17:33:59.080Z,97073.20
2018-08-12T17:36:26.202Z,97068.73
2018-08-12T17:38:53.486Z,97070.31
2018-08-12T17:41:20.598Z,97069.00
2018-08-12T17:43:47.717Z,97065.59
2018-08-12T17:46:16.171Z,97069.27
2018-08-12T17:48:43.060Z,97068.22
2018-08-12T17:51:10.057Z,97068.22
2018-08-12T17:53:36.986Z,97064.80
2018-08-12T17:56:03.901Z,97068.22
2018-08-12T17:58:30.941Z,97067.69
2018-08-12T18:00:57.920Z,97064.54
2018-08-12T18:03:24.894Z,97063.23
2018-08-12T18:05:52.024Z,97065.36
2018-08-12T18:08:19.065Z,97060.60
2018-08-12T18:10:46.950Z,97057.75
2018-08-12T18:13:14.088Z,97064.84
2018-08-12T18:15:41.064Z,97067.47
2018-08-12T18:18:07.969Z,97072.19
2018-08-12T18:20:35.001Z,97066.94
2018-08-12T18:23:01.944Z,97069.30
2018-08-12T18:25:28.835Z,97060.33
2018-08-12T18:27:55.757Z,97069.30
2018-08-12T18:30:22.675Z,97071.41
2018-08-12T18:32:49.570Z,97074.83
2018-08-12T18:35:16.461Z,97076.66
2018-08-12T18:37:43.619Z,97070.36
2018-08-12T18:40:11.656Z,97064.59
2018-08-12T18:42:38.772Z,97070.62
2018-08-12T18:45:05.688Z,97071.15
2018-08-12T18:47:32.766Z,97065.38
2018-08-12T18:49:59.655Z,97070.10
2018-08-12T18:52:26.645Z,97074.05
2018-08-12T18:54:53.617Z,97071.15
2018-08-12T18:57:20.513Z,97077.19
2018-08-12T18:59:47.415Z,97075.35
2018-08-12T19:02:14.296Z,97070.36
2018-08-12T19:04:41.245Z,97079.81
2018-08-12T19:07:08.139Z,97084.55
2018-08-12T19:09:35.054Z,97077.45
2018-08-12T19:12:02.086Z,97085.34
2018-08-12T19:14:28.980Z,97088.75
2018-08-12T19:16:55.897Z,97091.91
2018-08-12T19:19:22.818Z,97094.27
2018-08-12T19:21:49.707Z,97095.05
2018-08-12T19:24:16.634Z,97096.09
2018-08-12T19:26:43.564Z,97092.42
2018-08-12T19:29:10.505Z,97088.23
2018-08-12T19:31:37.655Z,97086.65
2018-08-12T19:34:04.549Z,97088.48
2018-08-12T19:36:31.437Z,97091.11
2018-08-12T19:38:58.349Z,97088.48
2018-08-12T19:41:25.347Z,97087.17
2018-08-12T19:43:52.244Z,97083.76
2018-08-12T19:46:19.302Z,97083.76
2018-08-12T19:48:46.189Z,97084.02
2018-08-12T19:51:13.936Z,97071.94
2018-08-12T19:53:40.993Z,97073.78
2018-08-12T19:56:07.905Z,97079.03
2018-08-12T19:58:34.810Z,97077.72
2018-08-12T20:01:01.706Z,97083.77
2018-08-12T20:03:28.598Z,97072.47
2018-08-12T20:05:55.634Z,97076.41
2018-08-12T20:08:22.570Z,97082.19
2018-08-12T20:10:49.494Z,97080.88
2018-08-12T20:13:16.454Z,97079.56
2018-08-12T20:15:43.383Z,97083.50
2018-08-12T20:18:10.325Z,97080.08
2018-08-12T20:20:37.213Z,97080.88
2018-08-12T20:23:04.102Z,97073.78
2018-08-12T20:25:31.102Z,97078.77
2018-08-12T20:27:58.054Z,97077.45
2018-08-12T20:30:25.049Z,97080.88
2018-08-12T20:32:52.027Z,97080.34
2018-08-12T20:35:19.065Z,97079.83
2018-08-12T20:37:46.092Z,97080.88
2018-08-12T20:40:12.980Z,97076.67
2018-08-12T20:42:39.888Z,97087.17
2018-08-12T20:45:07.250Z,97079.03
2018-08-12T20:47:34.196Z,97083.77
2018-08-12T20:50:01.085Z,97079.04
2018-08-12T20:52:28.034Z,97076.94
2018-08-12T20:54:54.953Z,97073.78
2018-08-12T20:57:21.906Z,97070.89
2018-08-12T20:59:48.921Z,97066.95
2018-08-12T21:02:15.964Z,97065.91
2018-08-12T21:04:42.958Z,97066.43
2018-08-12T21:07:09.880Z,97071.16
2018-08-12T21:09:37.421Z,97069.84
2018-08-12T21:12:04.464Z,97074.31
2018-08-12T21:14:31.274Z,97068.53
2018-08-12T21:16:58.371Z,97071.95
2018-08-12T21:19:25.301Z,97068.80
2018-08-12T21:21:52.244Z,97062.75
2018-08-12T21:24:19.197Z,97059.34
2018-08-12T21:26:46.120Z,97061.45
2018-08-12T21:29:13.029Z,97057.50
2018-08-12T21:31:39.977Z,97054.35
2018-08-12T21:34:06.908Z,97053.04
2018-08-12T21:36:33.817Z,97050.94
2018-08-12T21:39:00.801Z,97048.31
2018-08-12T21:41:27.962Z,97051.72
2018-08-12T21:43:55.026Z,97052.25
2018-08-12T21:46:23.198Z,97042.27
2018-08-12T21:48:50.158Z,97050.15
2018-08-12T21:51:17.130Z,97047.52
2018-08-12T21:53:44.228Z,97045.95
2018-08-12T21:56:11.234Z,97045.42
2018-08-12T21:58:38.485Z,97048.34
2018-08-12T22:01:05.605Z,97047.03
2018-08-12T22:03:32.661Z,97048.34
2018-08-12T22:05:59.861Z,97056.22
2018-08-12T22:08:27.158Z,97052.78
2018-08-12T22:10:54.119Z,97057.02
2018-08-12T22:13:21.166Z,97056.22
2018-08-12T22:15:48.157Z,97052.28
2018-08-12T22:18:15.086Z,97050.97
2018-08-12T22:20:42.141Z,97054.09
2018-08-12T22:23:09.167Z,97050.67
2018-08-12T22:25:36.096Z,97048.84
2018-08-12T22:28:03.560Z,97051.77
2018-08-12T22:30:30.698Z,97049.13
2018-08-12T22:32:57.862Z,97051.77
2018-08-12T22:35:24.870Z,97050.45
2018-08-12T22:37:52.027Z,97041.48
2018-08-12T22:40:19.133Z,97038.33
2018-08-12T22:42:46.105Z,97047.81
2018-08-12T22:45:13.186Z,97041.78
2018-08-12T22:47:40.864Z,97039.94
2018-08-12T22:50:08.697Z,97046.51
2018-08-12T22:52:35.886Z,97044.67
2018-08-12T22:55:02.943Z,97045.72
2018-08-12T22:57:30.059Z,97041.25
2018-08-12T22:59:57.088Z,97038.10
2018-08-12T23:02:24.302Z,97041.52
2018-08-12T23:04:51.508Z,97040.47
2018-08-12T23:07:18.470Z,97043.36
2018-08-12T23:09:45.500Z,97039.41
2018-08-12T23:12:12.545Z,97042.83
2018-08-12T23:14:39.548Z,97037.58
2018-08-12T23:17:06.511Z,97038.36
2018-08-12T23:19:33.778Z,97036.00
2018-08-12T23:22:00.784Z,97033.11
2018-08-12T23:24:27.825Z,97034.16
2018-08-12T23:26:54.843Z,97030.48
2018-08-12T23:29:21.866Z,97031.27
2018-08-12T23:31:48.870Z,97034.42
2018-08-12T23:34:15.875Z,97027.86
2018-08-12T23:36:42.888Z,97024.44
2018-08-12T23:39:10.973Z,97031.80
2018-08-12T23:41:38.016Z,97027.33
2018-08-12T23:44:04.936Z,97023.92
2018-08-12T23:46:31.944Z,97022.08
2018-08-12T23:48:59.019Z,97026.55
2018-08-12T23:51:26.092Z,97024.97
2018-08-12T23:53:53.171Z,97018.92
2018-08-12T23:56:20.410Z,97013.67
2018-08-12T23:58:47.366Z,97021.55
